Union Bridge, MD (21791)

10:17 PM EST on January 25, 2015 (GMT -0500)
Union Bridge | Change Station
CLOSE
Current Station
Personal Weather Station
Location: Union Bridge, MD
Elevation: 420 ft
Nearby Weather Stations
Active Advisory: Winter Weather Advisory

Elev 420 ft 39.57 °N, 77.17 °W | Updated 3 minutes ago

Rain
Rain
37.2 °F
Feels Like 35 °F
N
3.2
Wind Variable Wind from NE

Today
High -- | Low -- °F
--% Chance of Precip.
Yesterday
High -- | Low -- °F
Precip. -- in
7:22 AM 5:20 PM
Waxing Crescent, 38% visible
Pressure 29.86 in
Visibility 4.0 miles
Clouds Overcast 4400 ft
Windchill 35 °F
Dew Point 37 °F
Humidity 98%
Rainfall 0.05 in
Snow Depth Not available.
UV 0 out of 12
Pollen .10 out of 12
Air Quality Not available.
Flu Activity Not available.
METAR KDMW 260255Z AUTO 06006KT 4SM RA OVC044 02/01 A2986 RMK AO2

More Conditions Fewer Conditions

Pressure 29.86 in
Visibility 4.0 miles
Clouds Overcast 4400 ft
Windchill 35 °F
Dew Point 37 °F
Humidity 98%
Rainfall 0.05 in
Snow Depth Not available.
UV 0 out of 12
Pollen .10 out of 12
Air Quality Not available.
Flu Activity Not available.
METAR KDMW 260255Z AUTO 06006KT 4SM RA OVC044 02/01 A2986 RMK AO2

More Conditions Fewer Conditions

10-Day Weather Forecast

Almanac

Astronomy

Jan. 25, 2015 Rise Set
Actual Time
Civil Twilight
Nautical Twilight
Astronomical Twilight
Moon
Length of Visible Light
Length of Day
Tomorrow will be .
, % of the Moon is Illuminated

Today's Extremes

State Highs State Lows

Community

WunderPhotos

Upload Photos

1,790,087 photos uploaded!

WunderBlogs® & News

Nearby

Air Quality

  Air Quality AQ Index Pollutant
Not available.

Snow Depth

Station Depth Elevation

Earthquake Activity

City Distance Mag. Time & Date
Minimum magnitude displayed is 2.5.

Coastal Water Temperatures

Place Temperature

Nearby Weather Stations